CheckWX is a tool to help pilots better visualize weather data.  It is not intended as a substitute for an official pre-flight weather briefing.

15:35:25 UTC

KUDG METAR
Darlington County Airport
Darlington, South Carolina, USA
Current

39 mins ago

KUDG 241456Z AUTO 25007KT 10SM CLR 30/23 A2998 RMK AO2 SLP151 T03000228 51001
Observed
Jun-24 @ 14:56 UTC
Wind
  • 250° at 7 KTS
Visibility
10 SM
Flight Rules
VFR
Cloud Levels
  • Clear skies
Temperature
30°C / 86°F
Dewpoint
23°C / 73°F
Heat Index
34°C / 93°F
Humidity
66%
Altimeter
29.98" Hg
Pressure
1015.22 hPa
Previous

2 hours ago

KUDG 241356Z AUTO 23010KT 10SM CLR 28/22 A2998 RMK AO2 SLP151 T02830217
Observed
Jun-24 @ 13:56 UTC
Wind
  • 230° at 10 KTS
Visibility
10 SM
Flight Rules
VFR
Cloud Levels
  • Clear skies
Temperature
28°C / 82°F
Dewpoint
22°C / 72°F
Heat Index
30°C / 86°F
Humidity
70%
Altimeter
29.98" Hg
Pressure
1015.22 hPa
Previous

3 hours ago

KUDG 241256Z AUTO 24007KT 10SM CLR 26/22 A2998 RMK AO2 SLP153 T02610222
Observed
Jun-24 @ 12:56 UTC
Wind
  • 240° at 7 KTS
Visibility
10 SM
Flight Rules
VFR
Cloud Levels
  • Clear skies
Temperature
26°C / 79°F
Dewpoint
22°C / 72°F
Humidity
79%
Altimeter
29.98" Hg
Pressure
1015.22 hPa